PWSweather.com
Personal Weather Stations
Station Observations
DW6359
Southwest Cambria, Cambria, WI 53923

Southwest CambriaCambria, WI 53923

Lat: 43.541194, Lon: -89.11275

Elevation: 945

Station Type: Davis Vantage Pro2

http://home.centurytel.net/weathercambria/wxcambria.html

High Low Average
Temperature 40.7°F4.8°C 28.3°F-2.1°C 34.8°F1.6°C
Dew Point 30.2°F-1.0°C 17.8°F-7.9°C 24.5°F-4.2°C
Winds 16.0 mph 25.7 kmh Calm Calm 7.0 mph NW11.3 kmh NW
Wind Gusts 22.0 mph35.4 kmh -- 3.0 mph4.8 kmh
Humidity 83% 47% 67%
Pressure 30.26 in1024.7 mb 30.17 in1021.7 mb -
Precipitation 0.00 in0.0 mm - -
Hour Temp Dew Point Humidity Winds Wind Gusts Pressure Precip Precip Rate Daily Precip Total
12:00 AM 34.8°F1.6°C 29.0°F-1.7°C 79% Calm Calm -- 30.22 in1023.4 mb 0.00 in0.0 mm 0.00 in0.0 mm 0.00 in0.0 mm
12:05 AM 34.9°F1.6°C 29.1°F-1.6°C 79% 5.0 mph WSW8.0 kmh WSW -- 30.22 in1023.4 mb 0.00 in0.0 mm 0.00 in0.0 mm 0.00 in0.0 mm
12:10 AM 35.0°F1.7°C 29.2°F-1.6°C 79% 4.0 mph WSW6.4 kmh WSW -- 30.22 in1023.4 mb 0.00 in0.0 mm 0.00 in0.0 mm 0.00 in0.0 mm
12:15 AM 34.9°F1.6°C 29.4°F-1.4°C 80% 1.0 mph W1.6 kmh W -- 30.22 in1023.4 mb 0.00 in0.0 mm 0.00 in0.0 mm 0.00 in0.0 mm
12:20 AM 34.9°F1.6°C 29.4°F-1.4°C 80% 4.0 mph W6.4 kmh W 8.0 mph12.9 kmh 30.22 in1023.4 mb 0.00 in0.0 mm 0.00 in0.0 mm 0.00 in0.0 mm
12:25 AM 34.9°F1.6°C 29.4°F-1.4°C 80% 2.0 mph WSW3.2 kmh WSW 8.0 mph12.9 kmh 30.23 in1023.7 mb 0.00 in0.0 mm 0.00 in0.0 mm 0.00 in0.0 mm
12:30 AM 34.8°F1.6°C 29.3°F-1.5°C 80% 5.0 mph WNW8.0 kmh WNW -- 30.22 in1023.4 mb 0.00 in0.0 mm 0.00 in0.0 mm 0.00 in0.0 mm
12:35 AM 34.8°F1.6°C 29.3°F-1.5°C 80% 5.0 mph WNW8.0 kmh WNW -- 30.22 in1023.4 mb 0.00 in0.0 mm 0.00 in0.0 mm 0.00 in0.0 mm
12:40 AM 34.8°F1.6°C 29.6°F-1.3°C 81% 4.0 mph WNW6.4 kmh WNW -- 30.22 in1023.4 mb 0.00 in0.0 mm 0.00 in0.0 mm 0.00 in0.0 mm
12:45 AM 34.8°F1.6°C 29.6°F-1.3°C 81% 6.0 mph W9.7 kmh W -- 30.21 in1023.0 mb 0.00 in0.0 mm 0.00 in0.0 mm 0.00 in0.0 mm
12:50 AM 34.7°F1.5°C 29.5°F-1.4°C 81% 2.0 mph W3.2 kmh W -- 30.21 in1023.0 mb 0.00 in0.0 mm 0.00 in0.0 mm 0.00 in0.0 mm
12:55 AM 34.7°F1.5°C 29.5°F-1.4°C 81% Calm Calm -- 30.21 in1023.0 mb 0.00 in0.0 mm 0.00 in0.0 mm 0.00 in0.0 mm
01:00 AM 34.7°F1.5°C 29.8°F-1.2°C 82% 7.0 mph W11.3 kmh W -- 30.22 in1023.4 mb 0.00 in0.0 mm 0.00 in0.0 mm 0.00 in0.0 mm
01:05 AM 34.8°F1.6°C 29.9°F-1.2°C 82% 4.0 mph WNW6.4 kmh WNW -- 30.22 in1023.4 mb 0.00 in0.0 mm 0.00 in0.0 mm 0.00 in0.0 mm
01:10 AM 34.8°F1.6°C 29.9°F-1.2°C 82% 2.0 mph W3.2 kmh W 10.0 mph16.1 kmh 30.22 in1023.4 mb 0.00 in0.0 mm 0.00 in0.0 mm 0.00 in0.0 mm
01:15 AM 34.8°F1.6°C 29.9°F-1.2°C 82% 6.0 mph WNW9.7 kmh WNW 10.0 mph16.1 kmh 30.21 in1023.0 mb 0.00 in0.0 mm 0.00 in0.0 mm 0.00 in0.0 mm
01:20 AM 34.8°F1.6°C 29.9°F-1.2°C 82% 5.0 mph W8.0 kmh W -- 30.21 in1023.0 mb 0.00 in0.0 mm 0.00 in0.0 mm 0.00 in0.0 mm
01:25 AM 34.8°F1.6°C 29.9°F-1.2°C 82% 8.0 mph W12.9 kmh W -- 30.21 in1023.0 mb 0.00 in0.0 mm 0.00 in0.0 mm 0.00 in0.0 mm
01:30 AM 34.8°F1.6°C 29.9°F-1.2°C 82% 7.0 mph WSW11.3 kmh WSW -- 30.21 in1023.0 mb 0.00 in0.0 mm 0.00 in0.0 mm 0.00 in0.0 mm
01:35 AM 34.8°F1.6°C 29.9°F-1.2°C 82% 4.0 mph WNW6.4 kmh WNW -- 30.21 in1023.0 mb 0.00 in0.0 mm 0.00 in0.0 mm 0.00 in0.0 mm
01:40 AM 34.8°F1.6°C 29.9°F-1.2°C 82% 9.0 mph W14.5 kmh W -- 30.21 in1023.0 mb 0.00 in0.0 mm 0.00 in0.0 mm 0.00 in0.0 mm
01:45 AM 34.9°F1.6°C 30.0°F-1.1°C 82% 5.0 mph W8.0 kmh W -- 30.21 in1023.0 mb 0.00 in0.0 mm 0.00 in0.0 mm 0.00 in0.0 mm
01:50 AM 34.8°F1.6°C 29.9°F-1.2°C 82% 2.0 mph WNW3.2 kmh WNW -- 30.20 in1022.7 mb 0.00 in0.0 mm 0.00 in0.0 mm 0.00 in0.0 mm
01:55 AM 34.8°F1.6°C 30.2°F-1.0°C 83% 5.0 mph W8.0 kmh W -- 30.20 in1022.7 mb 0.00 in0.0 mm 0.00 in0.0 mm 0.00 in0.0 mm
02:00 AM 34.8°F1.6°C 30.2°F-1.0°C 83% 10.0 mph NW16.1 kmh NW 9.0 mph14.5 kmh 30.20 in1022.7 mb 0.00 in0.0 mm 0.00 in0.0 mm 0.00 in0.0 mm
02:05 AM 34.8°F1.6°C 30.2°F-1.0°C 83% 5.0 mph NW8.0 kmh NW 9.0 mph14.5 kmh 30.20 in1022.7 mb 0.00 in0.0 mm 0.00 in0.0 mm 0.00 in0.0 mm
02:10 AM 34.7°F1.5°C 30.1°F-1.1°C 83% 2.0 mph WNW3.2 kmh WNW -- 30.20 in1022.7 mb 0.00 in0.0 mm 0.00 in0.0 mm 0.00 in0.0 mm
02:15 AM 34.7°F1.5°C 30.1°F-1.1°C 83% 7.0 mph W11.3 kmh W -- 30.19 in1022.4 mb 0.00 in0.0 mm 0.00 in0.0 mm 0.00 in0.0 mm
02:20 AM 34.7°F1.5°C 30.1°F-1.1°C 83% 7.0 mph NW11.3 kmh NW -- 30.19 in1022.4 mb 0.00 in0.0 mm 0.00 in0.0 mm 0.00 in0.0 mm
02:25 AM 34.7°F1.5°C 30.1°F-1.1°C 83% 3.0 mph NW4.8 kmh NW -- 30.19 in1022.4 mb 0.00 in0.0 mm 0.00 in0.0 mm 0.00 in0.0 mm
02:30 AM 34.7°F1.5°C 30.1°F-1.1°C 83% 5.0 mph NW8.0 kmh NW -- 30.19 in1022.4 mb 0.00 in0.0 mm 0.00 in0.0 mm 0.00 in0.0 mm
02:35 AM 34.7°F1.5°C 30.1°F-1.1°C 83% 3.0 mph WNW4.8 kmh WNW -- 30.18 in1022.0 mb 0.00 in0.0 mm 0.00 in0.0 mm 0.00 in0.0 mm
02:40 AM 34.5°F1.4°C 29.9°F-1.2°C 83% 6.0 mph WNW9.7 kmh WNW -- 30.18 in1022.0 mb 0.00 in0.0 mm 0.00 in0.0 mm 0.00 in0.0 mm
02:45 AM 34.4°F1.3°C 29.8°F-1.2°C 83% 10.0 mph WNW16.1 kmh WNW -- 30.18 in1022.0 mb 0.00 in0.0 mm 0.00 in0.0 mm 0.00 in0.0 mm
02:50 AM 34.4°F1.3°C 29.8°F-1.2°C 83% 9.0 mph W14.5 kmh W 12.0 mph19.3 kmh 30.18 in1022.0 mb 0.00 in0.0 mm 0.00 in0.0 mm 0.00 in0.0 mm
02:55 AM 34.4°F1.3°C 29.8°F-1.2°C 83% 6.0 mph NW9.7 kmh NW 12.0 mph19.3 kmh 30.18 in1022.0 mb 0.00 in0.0 mm 0.00 in0.0 mm 0.00 in0.0 mm
03:00 AM 34.4°F1.3°C 29.8°F-1.2°C 83% 9.0 mph W14.5 kmh W -- 30.18 in1022.0 mb 0.00 in0.0 mm 0.00 in0.0 mm 0.00 in0.0 mm
03:05 AM 34.4°F1.3°C 29.8°F-1.2°C 83% 5.0 mph W8.0 kmh W -- 30.18 in1022.0 mb 0.00 in0.0 mm 0.00 in0.0 mm 0.00 in0.0 mm
03:10 AM 34.3°F1.3°C 29.7°F-1.3°C 83% 8.0 mph NW12.9 kmh NW -- 30.18 in1022.0 mb 0.00 in0.0 mm 0.00 in0.0 mm 0.00 in0.0 mm
03:15 AM 34.3°F1.3°C 29.7°F-1.3°C 83% 7.0 mph NW11.3 kmh NW -- 30.18 in1022.0 mb 0.00 in0.0 mm 0.00 in0.0 mm 0.00 in0.0 mm
03:20 AM 34.3°F1.3°C 29.7°F-1.3°C 83% 7.0 mph NW11.3 kmh NW -- 30.18 in1022.0 mb 0.00 in0.0 mm 0.00 in0.0 mm 0.00 in0.0 mm
03:25 AM 34.3°F1.3°C 29.7°F-1.3°C 83% 6.0 mph WNW9.7 kmh WNW -- 30.18 in1022.0 mb 0.00 in0.0 mm 0.00 in0.0 mm 0.00 in0.0 mm
03:30 AM 34.4°F1.3°C 29.5°F-1.4°C 82% 6.0 mph WNW9.7 kmh WNW -- 30.18 in1022.0 mb 0.00 in0.0 mm 0.00 in0.0 mm 0.00 in0.0 mm
03:35 AM 34.6°F1.4°C 29.1°F-1.6°C 80% 6.0 mph NW9.7 kmh NW -- 30.18 in1022.0 mb 0.00 in0.0 mm 0.00 in0.0 mm 0.00 in0.0 mm
03:40 AM 34.6°F1.4°C 29.1°F-1.6°C 80% 5.0 mph WNW8.0 kmh WNW 15.0 mph24.1 kmh 30.18 in1022.0 mb 0.00 in0.0 mm 0.00 in0.0 mm 0.00 in0.0 mm
03:45 AM 34.6°F1.4°C 29.1°F-1.6°C 80% 8.0 mph WNW12.9 kmh WNW 15.0 mph24.1 kmh 30.18 in1022.0 mb 0.00 in0.0 mm 0.00 in0.0 mm 0.00 in0.0 mm
03:50 AM 34.5°F1.4°C 29.3°F-1.5°C 81% 5.0 mph WNW8.0 kmh WNW -- 30.18 in1022.0 mb 0.00 in0.0 mm 0.00 in0.0 mm 0.00 in0.0 mm
03:55 AM 34.4°F1.3°C 29.5°F-1.4°C 82% 8.0 mph NW12.9 kmh NW -- 30.18 in1022.0 mb 0.00 in0.0 mm 0.00 in0.0 mm 0.00 in0.0 mm
04:00 AM 34.3°F1.3°C 29.4°F-1.4°C 82% 5.0 mph WSW8.0 kmh WSW -- 30.18 in1022.0 mb 0.00 in0.0 mm 0.00 in0.0 mm 0.00 in0.0 mm
04:05 AM 34.3°F1.3°C 29.4°F-1.4°C 82% 8.0 mph W12.9 kmh W -- 30.18 in1022.0 mb 0.00 in0.0 mm 0.00 in0.0 mm 0.00 in0.0 mm
04:10 AM 34.3°F1.3°C 29.4°F-1.4°C 82% 4.0 mph W6.4 kmh W -- 30.18 in1022.0 mb 0.00 in0.0 mm 0.00 in0.0 mm 0.00 in0.0 mm
04:15 AM 34.3°F1.3°C 29.4°F-1.4°C 82% 9.0 mph WNW14.5 kmh WNW -- 30.18 in1022.0 mb 0.00 in0.0 mm 0.00 in0.0 mm 0.00 in0.0 mm
04:20 AM 34.3°F1.3°C 29.1°F-1.6°C 81% 8.0 mph NW12.9 kmh NW -- 30.18 in1022.0 mb 0.00 in0.0 mm 0.00 in0.0 mm 0.00 in0.0 mm
04:25 AM 34.3°F1.3°C 29.1°F-1.6°C 81% 8.0 mph WNW12.9 kmh WNW -- 30.18 in1022.0 mb 0.00 in0.0 mm 0.00 in0.0 mm 0.00 in0.0 mm
04:30 AM 34.3°F1.3°C 29.1°F-1.6°C 81% 6.0 mph NW9.7 kmh NW 13.0 mph20.9 kmh 30.18 in1022.0 mb 0.00 in0.0 mm 0.00 in0.0 mm 0.00 in0.0 mm
04:35 AM 34.3°F1.3°C 29.1°F-1.6°C 81% 3.0 mph WNW4.8 kmh WNW 13.0 mph20.9 kmh 30.18 in1022.0 mb 0.00 in0.0 mm 0.00 in0.0 mm 0.00 in0.0 mm
04:40 AM 34.3°F1.3°C 28.8°F-1.8°C 80% 4.0 mph NW6.4 kmh NW -- 30.18 in1022.0 mb 0.00 in0.0 mm 0.00 in0.0 mm 0.00 in0.0 mm
04:45 AM 34.3°F1.3°C 28.5°F-1.9°C 79% 4.0 mph WNW6.4 kmh WNW -- 30.18 in1022.0 mb 0.00 in0.0 mm 0.00 in0.0 mm 0.00 in0.0 mm
04:50 AM 34.4°F1.3°C 28.3°F-2.1°C 78% 5.0 mph WNW8.0 kmh WNW -- 30.17 in1021.7 mb 0.00 in0.0 mm 0.00 in0.0 mm 0.00 in0.0 mm
04:55 AM 34.4°F1.3°C 28.3°F-2.1°C 78% 10.0 mph W16.1 kmh W -- 30.18 in1022.0 mb 0.00 in0.0 mm 0.00 in0.0 mm 0.00 in0.0 mm
05:00 AM 34.4°F1.3°C 28.3°F-2.1°C 78% 7.0 mph WNW11.3 kmh WNW -- 30.18 in1022.0 mb 0.00 in0.0 mm 0.00 in0.0 mm 0.00 in0.0 mm
05:05 AM 34.4°F1.3°C 28.3°F-2.1°C 78% 4.0 mph WNW6.4 kmh WNW -- 30.18 in1022.0 mb 0.00 in0.0 mm 0.00 in0.0 mm 0.00 in0.0 mm
05:10 AM 34.3°F1.3°C 28.2°F-2.1°C 78% 8.0 mph NW12.9 kmh NW -- 30.18 in1022.0 mb 0.00 in0.0 mm 0.00 in0.0 mm 0.00 in0.0 mm
05:15 AM 34.3°F1.3°C 28.2°F-2.1°C 78% 6.0 mph NW9.7 kmh NW -- 30.18 in1022.0 mb 0.00 in0.0 mm 0.00 in0.0 mm 0.00 in0.0 mm
05:20 AM 34.2°F1.2°C 28.1°F-2.2°C 78% 8.0 mph WNW12.9 kmh WNW 14.0 mph22.5 kmh 30.18 in1022.0 mb 0.00 in0.0 mm 0.00 in0.0 mm 0.00 in0.0 mm
05:25 AM 34.1°F1.2°C 28.0°F-2.2°C 78% 4.0 mph W6.4 kmh W 14.0 mph22.5 kmh 30.18 in1022.0 mb 0.00 in0.0 mm 0.00 in0.0 mm 0.00 in0.0 mm
05:30 AM 34.1°F1.2°C 28.0°F-2.2°C 78% 5.0 mph NW8.0 kmh NW -- 30.18 in1022.0 mb 0.00 in0.0 mm 0.00 in0.0 mm 0.00 in0.0 mm
05:35 AM 34.0°F1.1°C 27.9°F-2.3°C 78% 4.0 mph NW6.4 kmh NW -- 30.18 in1022.0 mb 0.00 in0.0 mm 0.00 in0.0 mm 0.00 in0.0 mm
05:40 AM 34.1°F1.2°C 27.7°F-2.4°C 77% 6.0 mph NW9.7 kmh NW -- 30.18 in1022.0 mb 0.00 in0.0 mm 0.00 in0.0 mm 0.00 in0.0 mm
05:45 AM 34.1°F1.2°C 27.7°F-2.4°C 77% 4.0 mph NW6.4 kmh NW -- 30.18 in1022.0 mb 0.00 in0.0 mm 0.00 in0.0 mm 0.00 in0.0 mm
05:50 AM 34.1°F1.2°C 27.7°F-2.4°C 77% 7.0 mph NW11.3 kmh NW -- 30.18 in1022.0 mb 0.00 in0.0 mm 0.00 in0.0 mm 0.00 in0.0 mm
05:55 AM 34.1°F1.2°C 27.7°F-2.4°C 77% 7.0 mph WNW11.3 kmh WNW -- 30.18 in1022.0 mb 0.00 in0.0 mm 0.00 in0.0 mm 0.00 in0.0 mm
06:00 AM 34.1°F1.2°C 27.7°F-2.4°C 77% 8.0 mph NW12.9 kmh NW -- 30.18 in1022.0 mb 0.00 in0.0 mm 0.00 in0.0 mm 0.00 in0.0 mm
06:05 AM 34.0°F1.1°C 27.6°F-2.4°C 77% 8.0 mph W12.9 kmh W -- 30.19 in1022.4 mb 0.00 in0.0 mm 0.00 in0.0 mm 0.00 in0.0 mm
06:10 AM 34.0°F1.1°C 27.6°F-2.4°C 77% 7.0 mph NW11.3 kmh NW 13.0 mph20.9 kmh 30.18 in1022.0 mb 0.00 in0.0 mm 0.00 in0.0 mm 0.00 in0.0 mm
06:15 AM 34.0°F1.1°C 27.6°F-2.4°C 77% 8.0 mph WNW12.9 kmh WNW 13.0 mph20.9 kmh 30.18 in1022.0 mb 0.00 in0.0 mm 0.00 in0.0 mm 0.00 in0.0 mm
06:20 AM 33.9°F1.1°C 27.5°F-2.5°C 77% 5.0 mph NW8.0 kmh NW -- 30.19 in1022.4 mb 0.00 in0.0 mm 0.00 in0.0 mm 0.00 in0.0 mm
06:25 AM 33.9°F1.1°C 27.8°F-2.3°C 78% 4.0 mph NW6.4 kmh NW -- 30.19 in1022.4 mb 0.00 in0.0 mm 0.00 in0.0 mm 0.00 in0.0 mm
06:30 AM 33.8°F1.0°C 27.7°F-2.4°C 78% 5.0 mph NW8.0 kmh NW -- 30.19 in1022.4 mb 0.00 in0.0 mm 0.00 in0.0 mm 0.00 in0.0 mm
06:35 AM 33.9°F1.1°C 27.5°F-2.5°C 77% 6.0 mph NNW9.7 kmh NNW -- 30.19 in1022.4 mb 0.00 in0.0 mm 0.00 in0.0 mm 0.00 in0.0 mm
06:40 AM 33.9°F1.1°C 27.5°F-2.5°C 77% 10.0 mph NW16.1 kmh NW -- 30.19 in1022.4 mb 0.00 in0.0 mm 0.00 in0.0 mm 0.00 in0.0 mm
06:45 AM 33.8°F1.0°C 27.4°F-2.6°C 77% 9.0 mph NW14.5 kmh NW -- 30.19 in1022.4 mb 0.00 in0.0 mm 0.00 in0.0 mm 0.00 in0.0 mm
06:50 AM 33.8°F1.0°C 27.4°F-2.6°C 77% 10.0 mph NW16.1 kmh NW -- 30.19 in1022.4 mb 0.00 in0.0 mm 0.00 in0.0 mm 0.00 in0.0 mm
06:55 AM 33.8°F1.0°C 27.4°F-2.6°C 77% 10.0 mph NW16.1 kmh NW -- 30.19 in1022.4 mb 0.00 in0.0 mm 0.00 in0.0 mm 0.00 in0.0 mm
07:00 AM 33.7°F0.9°C 27.6°F-2.4°C 78% 7.0 mph NW11.3 kmh NW 15.0 mph24.1 kmh 30.20 in1022.7 mb 0.00 in0.0 mm 0.00 in0.0 mm 0.00 in0.0 mm
07:05 AM 33.7°F0.9°C 27.6°F-2.4°C 78% 11.0 mph NW17.7 kmh NW 15.0 mph24.1 kmh 30.20 in1022.7 mb 0.00 in0.0 mm 0.00 in0.0 mm 0.00 in0.0 mm
07:10 AM 33.6°F0.9°C 27.5°F-2.5°C 78% 11.0 mph NW17.7 kmh NW -- 30.19 in1022.4 mb 0.00 in0.0 mm 0.00 in0.0 mm 0.00 in0.0 mm
07:15 AM 33.6°F0.9°C 27.2°F-2.7°C 77% 10.0 mph NW16.1 kmh NW -- 30.19 in1022.4 mb 0.00 in0.0 mm 0.00 in0.0 mm 0.00 in0.0 mm
07:20 AM 33.5°F0.8°C 27.4°F-2.6°C 78% 6.0 mph NW9.7 kmh NW -- 30.20 in1022.7 mb 0.00 in0.0 mm 0.00 in0.0 mm 0.00 in0.0 mm
07:25 AM 33.4°F0.8°C 27.3°F-2.6°C 78% 8.0 mph NW12.9 kmh NW -- 30.19 in1022.4 mb 0.00 in0.0 mm 0.00 in0.0 mm 0.00 in0.0 mm
07:30 AM 33.4°F0.8°C 27.3°F-2.6°C 78% 6.0 mph WNW9.7 kmh WNW -- 30.20 in1022.7 mb 0.00 in0.0 mm 0.00 in0.0 mm 0.00 in0.0 mm
07:35 AM 33.4°F0.8°C 27.3°F-2.6°C 78% 4.0 mph WNW6.4 kmh WNW -- 30.20 in1022.7 mb 0.00 in0.0 mm 0.00 in0.0 mm 0.00 in0.0 mm
07:40 AM 33.4°F0.8°C 27.6°F-2.4°C 79% 7.0 mph NW11.3 kmh NW -- 30.20 in1022.7 mb 0.00 in0.0 mm 0.00 in0.0 mm 0.00 in0.0 mm
07:45 AM 33.4°F0.8°C 27.6°F-2.4°C 79% 9.0 mph NW14.5 kmh NW -- 30.20 in1022.7 mb 0.00 in0.0 mm 0.00 in0.0 mm 0.00 in0.0 mm
07:50 AM 33.4°F0.8°C 27.6°F-2.4°C 79% 8.0 mph NW12.9 kmh NW 12.0 mph19.3 kmh 30.20 in1022.7 mb 0.00 in0.0 mm 0.00 in0.0 mm 0.00 in0.0 mm
07:55 AM 33.4°F0.8°C 27.3°F-2.6°C 78% 8.0 mph NW12.9 kmh NW 12.0 mph19.3 kmh 30.20 in1022.7 mb 0.00 in0.0 mm 0.00 in0.0 mm 0.00 in0.0 mm
08:00 AM 33.6°F0.9°C 27.5°F-2.5°C 78% 10.0 mph N16.1 kmh N -- 30.20 in1022.7 mb 0.00 in0.0 mm 0.00 in0.0 mm 0.00 in0.0 mm
08:05 AM 33.7°F0.9°C 27.6°F-2.4°C 78% 6.0 mph NNW9.7 kmh NNW -- 30.20 in1022.7 mb 0.00 in0.0 mm 0.00 in0.0 mm 0.00 in0.0 mm
08:10 AM 33.7°F0.9°C 27.3°F-2.6°C 77% 8.0 mph NW12.9 kmh NW -- 30.20 in1022.7 mb 0.00 in0.0 mm 0.00 in0.0 mm 0.00 in0.0 mm
08:15 AM 33.3°F0.7°C 26.2°F-3.2°C 75% 11.0 mph NW17.7 kmh NW -- 30.20 in1022.7 mb 0.00 in0.0 mm 0.00 in0.0 mm 0.00 in0.0 mm
08:20 AM 33.3°F0.7°C 26.2°F-3.2°C 75% 8.0 mph NW12.9 kmh NW -- 30.20 in1022.7 mb 0.00 in0.0 mm 0.00 in0.0 mm 0.00 in0.0 mm
08:25 AM 33.2°F0.7°C 25.8°F-3.4°C 74% 7.0 mph WNW11.3 kmh WNW -- 30.20 in1022.7 mb 0.00 in0.0 mm 0.00 in0.0 mm 0.00 in0.0 mm
08:30 AM 33.2°F0.7°C 25.8°F-3.4°C 74% 10.0 mph NW16.1 kmh NW -- 30.20 in1022.7 mb 0.00 in0.0 mm 0.00 in0.0 mm 0.00 in0.0 mm
08:35 AM 33.1°F0.6°C 25.7°F-3.5°C 74% 14.0 mph W22.5 kmh W -- 30.20 in1022.7 mb 0.00 in0.0 mm 0.00 in0.0 mm 0.00 in0.0 mm
08:41 AM 33.2°F0.7°C 25.8°F-3.4°C 74% 9.0 mph NW14.5 kmh NW 16.0 mph25.7 kmh 30.20 in1022.7 mb 0.00 in0.0 mm 0.00 in0.0 mm 0.00 in0.0 mm
08:45 AM 33.2°F0.7°C 25.8°F-3.4°C 74% 5.0 mph NNW8.0 kmh NNW 16.0 mph25.7 kmh 30.20 in1022.7 mb 0.00 in0.0 mm 0.00 in0.0 mm 0.00 in0.0 mm
08:50 AM 33.6°F0.9°C 26.2°F-3.2°C 74% 13.0 mph WNW20.9 kmh WNW -- 30.20 in1022.7 mb 0.00 in0.0 mm 0.00 in0.0 mm 0.00 in0.0 mm
08:55 AM 33.1°F0.6°C 25.7°F-3.5°C 74% 15.0 mph W24.1 kmh W -- 30.20 in1022.7 mb 0.00 in0.0 mm 0.00 in0.0 mm 0.00 in0.0 mm
09:00 AM 32.9°F0.5°C 25.9°F-3.4°C 75% 16.0 mph NW25.7 kmh NW -- 30.20 in1022.7 mb 0.00 in0.0 mm 0.00 in0.0 mm 0.00 in0.0 mm
09:05 AM 33.3°F0.7°C 26.2°F-3.2°C 75% 8.0 mph NW12.9 kmh NW -- 30.21 in1023.0 mb 0.00 in0.0 mm 0.00 in0.0 mm 0.00 in0.0 mm
09:10 AM 33.5°F0.8°C 26.1°F-3.3°C 74% 5.0 mph WNW8.0 kmh WNW -- 30.21 in1023.0 mb 0.00 in0.0 mm 0.00 in0.0 mm 0.00 in0.0 mm
09:15 AM 33.1°F0.6°C 25.7°F-3.5°C 74% 8.0 mph W12.9 kmh W -- 30.21 in1023.0 mb 0.00 in0.0 mm 0.00 in0.0 mm 0.00 in0.0 mm
09:20 AM 32.9°F0.5°C 25.9°F-3.4°C 75% 7.0 mph WSW11.3 kmh WSW -- 30.21 in1023.0 mb 0.00 in0.0 mm 0.00 in0.0 mm 0.00 in0.0 mm
09:25 AM 32.8°F0.4°C 25.8°F-3.4°C 75% 13.0 mph NW20.9 kmh NW -- 30.21 in1023.0 mb 0.00 in0.0 mm 0.00 in0.0 mm 0.00 in0.0 mm
09:30 AM 33.0°F0.6°C 26.0°F-3.3°C 75% 6.0 mph NW9.7 kmh NW 17.0 mph27.4 kmh 30.20 in1022.7 mb 0.00 in0.0 mm 0.00 in0.0 mm 0.00 in0.0 mm
09:35 AM 33.2°F0.7°C 25.8°F-3.4°C 74% 8.0 mph NNW12.9 kmh NNW 17.0 mph27.4 kmh 30.21 in1023.0 mb 0.00 in0.0 mm 0.00 in0.0 mm 0.00 in0.0 mm
09:40 AM 33.7°F0.9°C 26.6°F-3.0°C 75% 16.0 mph NW25.7 kmh NW -- 30.21 in1023.0 mb 0.00 in0.0 mm 0.00 in0.0 mm 0.00 in0.0 mm
09:45 AM 33.9°F1.1°C 26.5°F-3.1°C 74% 10.0 mph W16.1 kmh W -- 30.21 in1023.0 mb 0.00 in0.0 mm 0.00 in0.0 mm 0.00 in0.0 mm
09:50 AM 33.8°F1.0°C 26.4°F-3.1°C 74% 11.0 mph NW17.7 kmh NW -- 30.20 in1022.7 mb 0.00 in0.0 mm 0.00 in0.0 mm 0.00 in0.0 mm
09:55 AM 34.1°F1.2°C 26.7°F-2.9°C 74% 8.0 mph NW12.9 kmh NW -- 30.20 in1022.7 mb 0.00 in0.0 mm 0.00 in0.0 mm 0.00 in0.0 mm
10:00 AM 34.1°F1.2°C 26.7°F-2.9°C 74% 11.0 mph NW17.7 kmh NW -- 30.20 in1022.7 mb 0.00 in0.0 mm 0.00 in0.0 mm 0.00 in0.0 mm
10:05 AM 34.4°F1.3°C 26.7°F-2.9°C 73% 7.0 mph W11.3 kmh W -- 30.20 in1022.7 mb 0.00 in0.0 mm 0.00 in0.0 mm 0.00 in0.0 mm
10:10 AM 34.5°F1.4°C 26.8°F-2.9°C 73% 12.0 mph W19.3 kmh W -- 30.20 in1022.7 mb 0.00 in0.0 mm 0.00 in0.0 mm 0.00 in0.0 mm
10:15 AM 34.6°F1.4°C 26.2°F-3.2°C 71% 7.0 mph NW11.3 kmh NW -- 30.20 in1022.7 mb 0.00 in0.0 mm 0.00 in0.0 mm 0.00 in0.0 mm
10:20 AM 35.0°F1.7°C 26.6°F-3.0°C 71% 9.0 mph WNW14.5 kmh WNW 16.0 mph25.7 kmh 30.20 in1022.7 mb 0.00 in0.0 mm 0.00 in0.0 mm 0.00 in0.0 mm
10:25 AM 35.1°F1.7°C 26.7°F-2.9°C 71% 8.0 mph NW12.9 kmh NW 16.0 mph25.7 kmh 30.20 in1022.7 mb 0.00 in0.0 mm 0.00 in0.0 mm 0.00 in0.0 mm
10:30 AM 35.1°F1.7°C 26.7°F-2.9°C 71% 16.0 mph NW25.7 kmh NW -- 30.20 in1022.7 mb 0.00 in0.0 mm 0.00 in0.0 mm 0.00 in0.0 mm
10:35 AM 35.5°F1.9°C 26.7°F-2.9°C 70% 15.0 mph NW24.1 kmh NW -- 30.20 in1022.7 mb 0.00 in0.0 mm 0.00 in0.0 mm 0.00 in0.0 mm
10:40 AM 35.7°F2.1°C 26.5°F-3.1°C 69% 10.0 mph NNW16.1 kmh NNW -- 30.20 in1022.7 mb 0.00 in0.0 mm 0.00 in0.0 mm 0.00 in0.0 mm
10:45 AM 36.6°F2.6°C 27.8°F-2.3°C 70% 9.0 mph NW14.5 kmh NW -- 30.20 in1022.7 mb 0.00 in0.0 mm 0.00 in0.0 mm 0.00 in0.0 mm
10:50 AM 36.7°F2.6°C 27.5°F-2.5°C 69% 10.0 mph W16.1 kmh W -- 30.20 in1022.7 mb 0.00 in0.0 mm 0.00 in0.0 mm 0.00 in0.0 mm
10:55 AM 36.5°F2.5°C 27.3°F-2.6°C 69% 8.0 mph WNW12.9 kmh WNW -- 30.19 in1022.4 mb 0.00 in0.0 mm 0.00 in0.0 mm 0.00 in0.0 mm
11:00 AM 36.5°F2.5°C 27.0°F-2.8°C 68% 10.0 mph NW16.1 kmh NW -- 30.19 in1022.4 mb 0.00 in0.0 mm 0.00 in0.0 mm 0.00 in0.0 mm
11:05 AM 37.1°F2.8°C 28.2°F-2.1°C 70% 7.0 mph NW11.3 kmh NW -- 30.20 in1022.7 mb 0.00 in0.0 mm 0.00 in0.0 mm 0.00 in0.0 mm
11:10 AM 37.4°F3.0°C 27.8°F-2.3°C 68% 6.0 mph WNW9.7 kmh WNW 15.0 mph24.1 kmh 30.20 in1022.7 mb 0.00 in0.0 mm 0.00 in0.0 mm 0.00 in0.0 mm
11:15 AM 37.3°F2.9°C 27.4°F-2.6°C 67% 11.0 mph NW17.7 kmh NW 15.0 mph24.1 kmh 30.20 in1022.7 mb 0.00 in0.0 mm 0.00 in0.0 mm 0.00 in0.0 mm
11:20 AM 37.2°F2.9°C 27.6°F-2.4°C 68% 9.0 mph WNW14.5 kmh WNW -- 30.19 in1022.4 mb 0.00 in0.0 mm 0.00 in0.0 mm 0.00 in0.0 mm
11:25 AM 37.5°F3.1°C 28.3°F-2.1°C 69% 13.0 mph WNW20.9 kmh WNW -- 30.19 in1022.4 mb 0.00 in0.0 mm 0.00 in0.0 mm 0.00 in0.0 mm
11:30 AM 37.6°F3.1°C 27.3°F-2.6°C 66% 9.0 mph W14.5 kmh W -- 30.19 in1022.4 mb 0.00 in0.0 mm 0.00 in0.0 mm 0.00 in0.0 mm
11:35 AM 37.9°F3.3°C 27.6°F-2.4°C 66% 5.0 mph W8.0 kmh W -- 30.19 in1022.4 mb 0.00 in0.0 mm 0.00 in0.0 mm 0.00 in0.0 mm
11:40 AM 37.9°F3.3°C 27.2°F-2.7°C 65% 9.0 mph W14.5 kmh W -- 30.19 in1022.4 mb 0.00 in0.0 mm 0.00 in0.0 mm 0.00 in0.0 mm
11:45 AM 38.2°F3.4°C 27.9°F-2.3°C 66% 5.0 mph NW8.0 kmh NW -- 30.19 in1022.4 mb 0.00 in0.0 mm 0.00 in0.0 mm 0.00 in0.0 mm
11:50 AM 38.5°F3.6°C 27.8°F-2.3°C 65% 11.0 mph NW17.7 kmh NW -- 30.19 in1022.4 mb 0.00 in0.0 mm 0.00 in0.0 mm 0.00 in0.0 mm
11:55 AM 38.2°F3.4°C 26.3°F-3.2°C 62% 15.0 mph NW24.1 kmh NW -- 30.19 in1022.4 mb 0.00 in0.0 mm 0.00 in0.0 mm 0.00 in0.0 mm
12:00 PM 38.4°F3.6°C 26.9°F-2.8°C 63% 8.0 mph NW12.9 kmh NW 19.0 mph30.6 kmh 30.19 in1022.4 mb 0.00 in0.0 mm 0.00 in0.0 mm 0.00 in0.0 mm
12:05 PM 38.7°F3.7°C 26.8°F-2.9°C 62% 11.0 mph W17.7 kmh W 19.0 mph30.6 kmh 30.19 in1022.4 mb 0.00 in0.0 mm 0.00 in0.0 mm 0.00 in0.0 mm
12:10 PM 38.8°F3.8°C 26.9°F-2.8°C 62% 7.0 mph NW11.3 kmh NW -- 30.18 in1022.0 mb 0.00 in0.0 mm 0.00 in0.0 mm 0.00 in0.0 mm
12:15 PM 39.2°F4.0°C 26.9°F-2.8°C 61% 8.0 mph NNW12.9 kmh NNW -- 30.18 in1022.0 mb 0.00 in0.0 mm 0.00 in0.0 mm 0.00 in0.0 mm
12:20 PM 39.1°F3.9°C 26.8°F-2.9°C 61% 10.0 mph NW16.1 kmh NW -- 30.18 in1022.0 mb 0.00 in0.0 mm 0.00 in0.0 mm 0.00 in0.0 mm
12:25 PM 39.2°F4.0°C 25.7°F-3.5°C 58% 5.0 mph NNW8.0 kmh NNW -- 30.18 in1022.0 mb 0.00 in0.0 mm 0.00 in0.0 mm 0.00 in0.0 mm
12:30 PM 39.3°F4.1°C 24.9°F-3.9°C 56% 12.0 mph WNW19.3 kmh WNW -- 30.18 in1022.0 mb 0.00 in0.0 mm 0.00 in0.0 mm 0.00 in0.0 mm
12:35 PM 39.8°F4.3°C 26.7°F-2.9°C 59% 12.0 mph NW19.3 kmh NW -- 30.18 in1022.0 mb 0.00 in0.0 mm 0.00 in0.0 mm 0.00 in0.0 mm
12:40 PM 39.7°F4.3°C 24.9°F-3.9°C 55% 8.0 mph NW12.9 kmh NW -- 30.18 in1022.0 mb 0.00 in0.0 mm 0.00 in0.0 mm 0.00 in0.0 mm
12:45 PM 40.1°F4.5°C 25.7°F-3.5°C 56% 9.0 mph NW14.5 kmh NW -- 30.18 in1022.0 mb 0.00 in0.0 mm 0.00 in0.0 mm 0.00 in0.0 mm
12:50 PM 39.4°F4.1°C 23.7°F-4.6°C 53% 12.0 mph NW19.3 kmh NW 22.0 mph35.4 kmh 30.18 in1022.0 mb 0.00 in0.0 mm 0.00 in0.0 mm 0.00 in0.0 mm
12:55 PM 39.2°F4.0°C 24.4°F-4.2°C 55% 12.0 mph WNW19.3 kmh WNW 22.0 mph35.4 kmh 30.18 in1022.0 mb 0.00 in0.0 mm 0.00 in0.0 mm 0.00 in0.0 mm
01:00 PM 39.9°F4.4°C 24.6°F-4.1°C 54% 15.0 mph W24.1 kmh W -- 30.18 in1022.0 mb 0.00 in0.0 mm 0.00 in0.0 mm 0.00 in0.0 mm
01:05 PM 40.1°F4.5°C 23.9°F-4.5°C 52% 7.0 mph W11.3 kmh W -- 30.18 in1022.0 mb 0.00 in0.0 mm 0.00 in0.0 mm 0.00 in0.0 mm
01:10 PM 39.9°F4.4°C 22.8°F-5.1°C 50% 11.0 mph NW17.7 kmh NW -- 30.18 in1022.0 mb 0.00 in0.0 mm 0.00 in0.0 mm 0.00 in0.0 mm
01:15 PM 39.8°F4.3°C 23.2°F-4.9°C 51% 8.0 mph NNW12.9 kmh NNW -- 30.18 in1022.0 mb 0.00 in0.0 mm 0.00 in0.0 mm 0.00 in0.0 mm
01:20 PM 39.7°F4.3°C 23.1°F-4.9°C 51% 6.0 mph NW9.7 kmh NW -- 30.18 in1022.0 mb 0.00 in0.0 mm 0.00 in0.0 mm 0.00 in0.0 mm
01:25 PM 40.4°F4.7°C 24.2°F-4.3°C 52% 9.0 mph W14.5 kmh W -- 30.18 in1022.0 mb 0.00 in0.0 mm 0.00 in0.0 mm 0.00 in0.0 mm
01:30 PM 40.2°F4.6°C 23.1°F-4.9°C 50% 10.0 mph W16.1 kmh W -- 30.18 in1022.0 mb 0.00 in0.0 mm 0.00 in0.0 mm 0.00 in0.0 mm
01:35 PM 39.4°F4.1°C 22.8°F-5.1°C 51% 9.0 mph NNW14.5 kmh NNW -- 30.18 in1022.0 mb 0.00 in0.0 mm 0.00 in0.0 mm 0.00 in0.0 mm
01:40 PM 40.0°F4.4°C 22.4°F-5.3°C 49% 16.0 mph NW25.7 kmh NW 18.0 mph29.0 kmh 30.17 in1021.7 mb 0.00 in0.0 mm 0.00 in0.0 mm 0.00 in0.0 mm
01:45 PM 40.4°F4.7°C 23.7°F-4.6°C 51% 12.0 mph NW19.3 kmh NW 18.0 mph29.0 kmh 30.17 in1021.7 mb 0.00 in0.0 mm 0.00 in0.0 mm 0.00 in0.0 mm
01:50 PM 40.3°F4.6°C 22.7°F-5.2°C 49% 9.0 mph WSW14.5 kmh WSW -- 30.17 in1021.7 mb 0.00 in0.0 mm 0.00 in0.0 mm 0.00 in0.0 mm
01:55 PM 40.7°F4.8°C 23.0°F-5.0°C 49% 5.0 mph NW8.0 kmh NW -- 30.18 in1022.0 mb 0.00 in0.0 mm 0.00 in0.0 mm 0.00 in0.0 mm
02:00 PM 40.3°F4.6°C 22.2°F-5.4°C 48% 16.0 mph WNW25.7 kmh WNW -- 30.18 in1022.0 mb 0.00 in0.0 mm 0.00 in0.0 mm 0.00 in0.0 mm
02:05 PM 40.4°F4.7°C 21.8°F-5.7°C 47% 10.0 mph NW16.1 kmh NW -- 30.18 in1022.0 mb 0.00 in0.0 mm 0.00 in0.0 mm 0.00 in0.0 mm
02:10 PM 40.3°F4.6°C 22.7°F-5.2°C 49% 6.0 mph N9.7 kmh N -- 30.18 in1022.0 mb 0.00 in0.0 mm 0.00 in0.0 mm 0.00 in0.0 mm
02:15 PM 39.8°F4.3°C 21.7°F-5.7°C 48% 11.0 mph NNW17.7 kmh NNW -- 30.18 in1022.0 mb 0.00 in0.0 mm 0.00 in0.0 mm 0.00 in0.0 mm
02:20 PM 39.2°F4.0°C 21.7°F-5.7°C 49% 10.0 mph NNW16.1 kmh NNW -- 30.18 in1022.0 mb 0.00 in0.0 mm 0.00 in0.0 mm 0.00 in0.0 mm
02:25 PM 39.2°F4.0°C 21.2°F-6.0°C 48% 13.0 mph WNW20.9 kmh WNW -- 30.18 in1022.0 mb 0.00 in0.0 mm 0.00 in0.0 mm 0.00 in0.0 mm
02:30 PM 39.3°F4.1°C 21.3°F-5.9°C 48% 8.0 mph NW12.9 kmh NW 20.0 mph32.2 kmh 30.19 in1022.4 mb 0.00 in0.0 mm 0.00 in0.0 mm 0.00 in0.0 mm
02:35 PM 39.2°F4.0°C 21.7°F-5.7°C 49% 9.0 mph N14.5 kmh N 20.0 mph32.2 kmh 30.18 in1022.0 mb 0.00 in0.0 mm 0.00 in0.0 mm 0.00 in0.0 mm
02:40 PM 38.8°F3.8°C 21.3°F-5.9°C 49% 12.0 mph NW19.3 kmh NW -- 30.19 in1022.4 mb 0.00 in0.0 mm 0.00 in0.0 mm 0.00 in0.0 mm
02:45 PM 38.8°F3.8°C 21.8°F-5.7°C 50% 8.0 mph NW12.9 kmh NW -- 30.19 in1022.4 mb 0.00 in0.0 mm 0.00 in0.0 mm 0.00 in0.0 mm
02:50 PM 39.4°F4.1°C 23.7°F-4.6°C 53% 12.0 mph NNW19.3 kmh NNW -- 30.19 in1022.4 mb 0.00 in0.0 mm 0.00 in0.0 mm 0.00 in0.0 mm
02:55 PM 38.8°F3.8°C 22.2°F-5.4°C 51% 8.0 mph NNE12.9 kmh NNE -- 30.20 in1022.7 mb 0.00 in0.0 mm 0.00 in0.0 mm 0.00 in0.0 mm
03:00 PM 38.5°F3.6°C 22.4°F-5.3°C 52% 7.0 mph NNW11.3 kmh NNW -- 30.20 in1022.7 mb 0.00 in0.0 mm 0.00 in0.0 mm 0.00 in0.0 mm
03:05 PM 38.3°F3.5°C 22.2°F-5.4°C 52% 9.0 mph NNW14.5 kmh NNW -- 30.20 in1022.7 mb 0.00 in0.0 mm 0.00 in0.0 mm 0.00 in0.0 mm
03:10 PM 38.1°F3.4°C 21.6°F-5.8°C 51% 5.0 mph NNW8.0 kmh NNW -- 30.20 in1022.7 mb 0.00 in0.0 mm 0.00 in0.0 mm 0.00 in0.0 mm
03:15 PM 37.9°F3.3°C 21.9°F-5.6°C 52% 6.0 mph NW9.7 kmh NW -- 30.20 in1022.7 mb 0.00 in0.0 mm 0.00 in0.0 mm 0.00 in0.0 mm
03:20 PM 38.0°F3.3°C 22.4°F-5.3°C 53% 6.0 mph N9.7 kmh N 18.0 mph29.0 kmh 30.20 in1022.7 mb 0.00 in0.0 mm 0.00 in0.0 mm 0.00 in0.0 mm
03:25 PM 37.9°F3.3°C 22.3°F-5.4°C 53% 7.0 mph NW11.3 kmh NW 18.0 mph29.0 kmh 30.20 in1022.7 mb 0.00 in0.0 mm 0.00 in0.0 mm 0.00 in0.0 mm
03:30 PM 37.7°F3.2°C 23.0°F-5.0°C 55% 12.0 mph NW19.3 kmh NW -- 30.21 in1023.0 mb 0.00 in0.0 mm 0.00 in0.0 mm 0.00 in0.0 mm
03:35 PM 37.6°F3.1°C 22.9°F-5.1°C 55% 11.0 mph N17.7 kmh N -- 30.21 in1023.0 mb 0.00 in0.0 mm 0.00 in0.0 mm 0.00 in0.0 mm
03:40 PM 37.6°F3.1°C 23.3°F-4.8°C 56% 15.0 mph NNW24.1 kmh NNW -- 30.21 in1023.0 mb 0.00 in0.0 mm 0.00 in0.0 mm 0.00 in0.0 mm
03:45 PM 37.4°F3.0°C 23.6°F-4.7°C 57% 11.0 mph N17.7 kmh N -- 30.21 in1023.0 mb 0.00 in0.0 mm 0.00 in0.0 mm 0.00 in0.0 mm
03:50 PM 36.8°F2.7°C 23.4°F-4.8°C 58% 10.0 mph NNW16.1 kmh NNW -- 30.22 in1023.4 mb 0.00 in0.0 mm 0.00 in0.0 mm 0.00 in0.0 mm
03:55 PM 36.6°F2.6°C 23.2°F-4.9°C 58% 9.0 mph NNW14.5 kmh NNW -- 30.22 in1023.4 mb 0.00 in0.0 mm 0.00 in0.0 mm 0.00 in0.0 mm
04:00 PM 36.6°F2.6°C 23.2°F-4.9°C 58% 11.0 mph NW17.7 kmh NW -- 30.22 in1023.4 mb 0.00 in0.0 mm 0.00 in0.0 mm 0.00 in0.0 mm
04:05 PM 36.6°F2.6°C 23.2°F-4.9°C 58% 6.0 mph NNW9.7 kmh NNW -- 30.22 in1023.4 mb 0.00 in0.0 mm 0.00 in0.0 mm 0.00 in0.0 mm
04:10 PM 36.6°F2.6°C 23.6°F-4.7°C 59% 6.0 mph N9.7 kmh N 18.0 mph29.0 kmh 30.22 in1023.4 mb 0.00 in0.0 mm 0.00 in0.0 mm 0.00 in0.0 mm
04:15 PM 36.6°F2.6°C 24.0°F-4.4°C 60% 6.0 mph NNW9.7 kmh NNW 18.0 mph29.0 kmh 30.23 in1023.7 mb 0.00 in0.0 mm 0.00 in0.0 mm 0.00 in0.0 mm
04:20 PM 36.5°F2.5°C 22.7°F-5.2°C 57% 7.0 mph NW11.3 kmh NW -- 30.23 in1023.7 mb 0.00 in0.0 mm 0.00 in0.0 mm 0.00 in0.0 mm
04:25 PM 36.7°F2.6°C 22.9°F-5.1°C 57% 6.0 mph WNW9.7 kmh WNW -- 30.23 in1023.7 mb 0.00 in0.0 mm 0.00 in0.0 mm 0.00 in0.0 mm
04:30 PM 37.1°F2.8°C 23.3°F-4.8°C 57% 7.0 mph NW11.3 kmh NW -- 30.23 in1023.7 mb 0.00 in0.0 mm 0.00 in0.0 mm 0.00 in0.0 mm
04:35 PM 37.2°F2.9°C 23.0°F-5.0°C 56% 5.0 mph NW8.0 kmh NW -- 30.23 in1023.7 mb 0.00 in0.0 mm 0.00 in0.0 mm 0.00 in0.0 mm
04:40 PM 37.3°F2.9°C 22.2°F-5.4°C 54% 5.0 mph NW8.0 kmh NW -- 30.23 in1023.7 mb 0.00 in0.0 mm 0.00 in0.0 mm 0.00 in0.0 mm
04:45 PM 37.3°F2.9°C 21.8°F-5.7°C 53% 10.0 mph NW16.1 kmh NW -- 30.23 in1023.7 mb 0.00 in0.0 mm 0.00 in0.0 mm 0.00 in0.0 mm
04:50 PM 37.1°F2.8°C 21.6°F-5.8°C 53% 10.0 mph NW16.1 kmh NW -- 30.23 in1023.7 mb 0.00 in0.0 mm 0.00 in0.0 mm 0.00 in0.0 mm
04:55 PM 36.8°F2.7°C 21.3°F-5.9°C 53% 8.0 mph NNW12.9 kmh NNW -- 30.23 in1023.7 mb 0.00 in0.0 mm 0.00 in0.0 mm 0.00 in0.0 mm
05:00 PM 36.4°F2.4°C 21.4°F-5.9°C 54% 7.0 mph NW11.3 kmh NW 14.0 mph22.5 kmh 30.22 in1023.4 mb 0.00 in0.0 mm 0.00 in0.0 mm 0.00 in0.0 mm
05:05 PM 36.4°F2.4°C 22.2°F-5.4°C 56% 5.0 mph NW8.0 kmh NW 14.0 mph22.5 kmh 30.22 in1023.4 mb 0.00 in0.0 mm 0.00 in0.0 mm 0.00 in0.0 mm
05:10 PM 36.4°F2.4°C 21.8°F-5.7°C 55% 6.0 mph NW9.7 kmh NW -- 30.22 in1023.4 mb 0.00 in0.0 mm 0.00 in0.0 mm 0.00 in0.0 mm
05:15 PM 36.5°F2.5°C 21.5°F-5.8°C 54% 9.0 mph NW14.5 kmh NW -- 30.22 in1023.4 mb 0.00 in0.0 mm 0.00 in0.0 mm 0.00 in0.0 mm
05:20 PM 36.4°F2.4°C 21.4°F-5.9°C 54% 5.0 mph N8.0 kmh N -- 30.22 in1023.4 mb 0.00 in0.0 mm 0.00 in0.0 mm 0.00 in0.0 mm
05:25 PM 36.3°F2.4°C 21.3°F-5.9°C 54% 8.0 mph NW12.9 kmh NW -- 30.22 in1023.4 mb 0.00 in0.0 mm 0.00 in0.0 mm 0.00 in0.0 mm
05:30 PM 36.1°F2.3°C 21.1°F-6.1°C 54% 4.0 mph NNW6.4 kmh NNW -- 30.22 in1023.4 mb 0.00 in0.0 mm 0.00 in0.0 mm 0.00 in0.0 mm
05:35 PM 36.0°F2.2°C 21.0°F-6.1°C 54% 6.0 mph NW9.7 kmh NW -- 30.23 in1023.7 mb 0.00 in0.0 mm 0.00 in0.0 mm 0.00 in0.0 mm
05:40 PM 35.9°F2.2°C 21.3°F-5.9°C 55% 4.0 mph NW6.4 kmh NW -- 30.23 in1023.7 mb 0.00 in0.0 mm 0.00 in0.0 mm 0.00 in0.0 mm
05:45 PM 35.7°F2.1°C 20.7°F-6.3°C 54% 5.0 mph NW8.0 kmh NW -- 30.23 in1023.7 mb 0.00 in0.0 mm 0.00 in0.0 mm 0.00 in0.0 mm
05:50 PM 35.6°F2.0°C 20.6°F-6.3°C 54% 5.0 mph NW8.0 kmh NW 8.0 mph12.9 kmh 30.23 in1023.7 mb 0.00 in0.0 mm 0.00 in0.0 mm 0.00 in0.0 mm
05:55 PM 35.4°F1.9°C 20.9°F-6.2°C 55% 2.0 mph WNW3.2 kmh WNW 8.0 mph12.9 kmh 30.23 in1023.7 mb 0.00 in0.0 mm 0.00 in0.0 mm 0.00 in0.0 mm
06:00 PM 35.3°F1.8°C 20.8°F-6.2°C 55% 6.0 mph NW9.7 kmh NW -- 30.23 in1023.7 mb 0.00 in0.0 mm 0.00 in0.0 mm 0.00 in0.0 mm
06:05 PM 35.1°F1.7°C 21.0°F-6.1°C 56% 1.0 mph WNW1.6 kmh WNW -- 30.23 in1023.7 mb 0.00 in0.0 mm 0.00 in0.0 mm 0.00 in0.0 mm
06:10 PM 34.9°F1.6°C 20.8°F-6.2°C 56% Calm Calm -- 30.23 in1023.7 mb 0.00 in0.0 mm 0.00 in0.0 mm 0.00 in0.0 mm
06:15 PM 34.7°F1.5°C 20.6°F-6.3°C 56% Calm Calm -- 30.23 in1023.7 mb 0.00 in0.0 mm 0.00 in0.0 mm 0.00 in0.0 mm
06:20 PM 34.6°F1.4°C 21.0°F-6.1°C 57% Calm Calm -- 30.23 in1023.7 mb 0.00 in0.0 mm 0.00 in0.0 mm 0.00 in0.0 mm
06:25 PM 34.3°F1.3°C 22.3°F-5.4°C 61% Calm Calm -- 30.23 in1023.7 mb 0.00 in0.0 mm 0.00 in0.0 mm 0.00 in0.0 mm
06:30 PM 34.2°F1.2°C 20.6°F-6.3°C 57% 4.0 mph NW6.4 kmh NW -- 30.23 in1023.7 mb 0.00 in0.0 mm 0.00 in0.0 mm 0.00 in0.0 mm
06:35 PM 34.2°F1.2°C 20.6°F-6.3°C 57% 2.0 mph NW3.2 kmh NW -- 30.23 in1023.7 mb 0.00 in0.0 mm 0.00 in0.0 mm 0.00 in0.0 mm
06:40 PM 34.2°F1.2°C 20.2°F-6.6°C 56% 4.0 mph NW6.4 kmh NW 8.0 mph12.9 kmh 30.23 in1023.7 mb 0.00 in0.0 mm 0.00 in0.0 mm 0.00 in0.0 mm
06:45 PM 34.1°F1.2°C 20.1°F-6.6°C 56% 5.0 mph WNW8.0 kmh WNW 8.0 mph12.9 kmh 30.23 in1023.7 mb 0.00 in0.0 mm 0.00 in0.0 mm 0.00 in0.0 mm
06:50 PM 34.0°F1.1°C 20.4°F-6.4°C 57% 5.0 mph NW8.0 kmh NW -- 30.23 in1023.7 mb 0.00 in0.0 mm 0.00 in0.0 mm 0.00 in0.0 mm
06:55 PM 33.8°F1.0°C 19.8°F-6.8°C 56% 4.0 mph NW6.4 kmh NW -- 30.23 in1023.7 mb 0.00 in0.0 mm 0.00 in0.0 mm 0.00 in0.0 mm
07:00 PM 33.8°F1.0°C 19.8°F-6.8°C 56% 3.0 mph NW4.8 kmh NW -- 30.24 in1024.0 mb 0.00 in0.0 mm 0.00 in0.0 mm 0.00 in0.0 mm
07:05 PM 33.9°F1.1°C 19.5°F-6.9°C 55% 5.0 mph NW8.0 kmh NW -- 30.23 in1023.7 mb 0.00 in0.0 mm 0.00 in0.0 mm 0.00 in0.0 mm
07:10 PM 33.8°F1.0°C 19.8°F-6.8°C 56% 3.0 mph NW4.8 kmh NW -- 30.23 in1023.7 mb 0.00 in0.0 mm 0.00 in0.0 mm 0.00 in0.0 mm
07:15 PM 33.6°F0.9°C 19.6°F-6.9°C 56% 3.0 mph WNW4.8 kmh WNW -- 30.24 in1024.0 mb 0.00 in0.0 mm 0.00 in0.0 mm 0.00 in0.0 mm
07:20 PM 33.7°F0.9°C 19.3°F-7.1°C 55% 2.0 mph NW3.2 kmh NW -- 30.24 in1024.0 mb 0.00 in0.0 mm 0.00 in0.0 mm 0.00 in0.0 mm
07:25 PM 33.5°F0.8°C 19.1°F-7.2°C 55% 6.0 mph WNW9.7 kmh WNW -- 30.24 in1024.0 mb 0.00 in0.0 mm 0.00 in0.0 mm 0.00 in0.0 mm
07:30 PM 33.6°F0.9°C 19.2°F-7.1°C 55% 2.0 mph NW3.2 kmh NW 9.0 mph14.5 kmh 30.24 in1024.0 mb 0.00 in0.0 mm 0.00 in0.0 mm 0.00 in0.0 mm
07:35 PM 33.5°F0.8°C 19.1°F-7.2°C 55% 3.0 mph WNW4.8 kmh WNW 9.0 mph14.5 kmh 30.24 in1024.0 mb 0.00 in0.0 mm 0.00 in0.0 mm 0.00 in0.0 mm
07:40 PM 33.5°F0.8°C 19.1°F-7.2°C 55% 3.0 mph NW4.8 kmh NW -- 30.25 in1024.4 mb 0.00 in0.0 mm 0.00 in0.0 mm 0.00 in0.0 mm
07:45 PM 33.2°F0.7°C 18.8°F-7.3°C 55% 5.0 mph W8.0 kmh W -- 30.25 in1024.4 mb 0.00 in0.0 mm 0.00 in0.0 mm 0.00 in0.0 mm
07:50 PM 33.1°F0.6°C 18.7°F-7.4°C 55% 3.0 mph WNW4.8 kmh WNW -- 30.25 in1024.4 mb 0.00 in0.0 mm 0.00 in0.0 mm 0.00 in0.0 mm
07:55 PM 32.9°F0.5°C 18.9°F-7.3°C 56% 5.0 mph NW8.0 kmh NW -- 30.25 in1024.4 mb 0.00 in0.0 mm 0.00 in0.0 mm 0.00 in0.0 mm
08:00 PM 32.8°F0.4°C 18.4°F-7.6°C 55% 5.0 mph NW8.0 kmh NW -- 30.25 in1024.4 mb 0.00 in0.0 mm 0.00 in0.0 mm 0.00 in0.0 mm
08:05 PM 32.8°F0.4°C 18.4°F-7.6°C 55% 2.0 mph NW3.2 kmh NW -- 30.25 in1024.4 mb 0.00 in0.0 mm 0.00 in0.0 mm 0.00 in0.0 mm
08:10 PM 32.7°F0.4°C 18.3°F-7.6°C 55% 5.0 mph NW8.0 kmh NW -- 30.25 in1024.4 mb 0.00 in0.0 mm 0.00 in0.0 mm 0.00 in0.0 mm
08:15 PM 32.7°F0.4°C 18.3°F-7.6°C 55% 7.0 mph NW11.3 kmh NW -- 30.25 in1024.4 mb 0.00 in0.0 mm 0.00 in0.0 mm 0.00 in0.0 mm
08:20 PM 32.9°F0.5°C 18.5°F-7.5°C 55% 6.0 mph NW9.7 kmh NW 9.0 mph14.5 kmh 30.25 in1024.4 mb 0.00 in0.0 mm 0.00 in0.0 mm 0.00 in0.0 mm
08:25 PM 32.9°F0.5°C 18.5°F-7.5°C 55% 6.0 mph NW9.7 kmh NW 9.0 mph14.5 kmh 30.25 in1024.4 mb 0.00 in0.0 mm 0.00 in0.0 mm 0.00 in0.0 mm
08:30 PM 32.9°F0.5°C 18.5°F-7.5°C 55% 5.0 mph NNW8.0 kmh NNW -- 30.25 in1024.4 mb 0.00 in0.0 mm 0.00 in0.0 mm 0.00 in0.0 mm
08:35 PM 33.0°F0.6°C 18.2°F-7.7°C 54% 6.0 mph NW9.7 kmh NW -- 30.25 in1024.4 mb 0.00 in0.0 mm 0.00 in0.0 mm 0.00 in0.0 mm
08:40 PM 33.2°F0.7°C 17.9°F-7.8°C 53% 6.0 mph N9.7 kmh N -- 30.25 in1024.4 mb 0.00 in0.0 mm 0.00 in0.0 mm 0.00 in0.0 mm
08:45 PM 33.1°F0.6°C 18.3°F-7.6°C 54% 5.0 mph NW8.0 kmh NW -- 30.25 in1024.4 mb 0.00 in0.0 mm 0.00 in0.0 mm 0.00 in0.0 mm
08:50 PM 33.0°F0.6°C 17.8°F-7.9°C 53% 5.0 mph NW8.0 kmh NW -- 30.25 in1024.4 mb 0.00 in0.0 mm 0.00 in0.0 mm 0.00 in0.0 mm
08:55 PM 32.8°F0.4°C 18.0°F-7.8°C 54% 3.0 mph NNW4.8 kmh NNW -- 30.25 in1024.4 mb 0.00 in0.0 mm 0.00 in0.0 mm 0.00 in0.0 mm
09:00 PM 32.6°F0.3°C 18.7°F-7.4°C 56% 5.0 mph NNW8.0 kmh NNW -- 30.25 in1024.4 mb 0.00 in0.0 mm 0.00 in0.0 mm 0.00 in0.0 mm
09:05 PM 32.4°F0.2°C 18.5°F-7.5°C 56% 3.0 mph NW4.8 kmh NW -- 30.25 in1024.4 mb 0.00 in0.0 mm 0.00 in0.0 mm 0.00 in0.0 mm
09:10 PM 32.3°F0.2°C 18.4°F-7.6°C 56% 5.0 mph NW8.0 kmh NW 7.0 mph11.3 kmh 30.25 in1024.4 mb 0.00 in0.0 mm 0.00 in0.0 mm 0.00 in0.0 mm
09:15 PM 32.1°F0.1°C 18.6°F-7.4°C 57% 4.0 mph NW6.4 kmh NW 7.0 mph11.3 kmh 30.25 in1024.4 mb 0.00 in0.0 mm 0.00 in0.0 mm 0.00 in0.0 mm
09:20 PM 32.0°F0.0°C 18.5°F-7.5°C 57% 5.0 mph NW8.0 kmh NW -- 30.25 in1024.4 mb 0.00 in0.0 mm 0.00 in0.0 mm 0.00 in0.0 mm
09:25 PM 31.9°F-0.1°C 18.4°F-7.6°C 57% 3.0 mph NNW4.8 kmh NNW -- 30.25 in1024.4 mb 0.00 in0.0 mm 0.00 in0.0 mm 0.00 in0.0 mm
09:30 PM 31.7°F-0.2°C 18.2°F-7.7°C 57% 3.0 mph NNW4.8 kmh NNW -- 30.26 in1024.7 mb 0.00 in0.0 mm 0.00 in0.0 mm 0.00 in0.0 mm
09:35 PM 31.6°F-0.2°C 18.1°F-7.7°C 57% Calm Calm -- 30.26 in1024.7 mb 0.00 in0.0 mm 0.00 in0.0 mm 0.00 in0.0 mm
09:40 PM 31.6°F-0.2°C 18.1°F-7.7°C 57% 6.0 mph NNW9.7 kmh NNW -- 30.26 in1024.7 mb 0.00 in0.0 mm 0.00 in0.0 mm 0.00 in0.0 mm
09:45 PM 31.5°F-0.3°C 18.4°F-7.6°C 58% 5.0 mph N8.0 kmh N -- 30.26 in1024.7 mb 0.00 in0.0 mm 0.00 in0.0 mm 0.00 in0.0 mm
09:50 PM 31.4°F-0.3°C 18.4°F-7.6°C 58% Calm Calm -- 30.26 in1024.7 mb 0.00 in0.0 mm 0.00 in0.0 mm 0.00 in0.0 mm
09:55 PM 31.3°F-0.4°C 18.3°F-7.6°C 58% 4.0 mph NNW6.4 kmh NNW -- 30.26 in1024.7 mb 0.00 in0.0 mm 0.00 in0.0 mm 0.00 in0.0 mm
10:00 PM 31.3°F-0.4°C 18.3°F-7.6°C 58% 3.0 mph NW4.8 kmh NW 7.0 mph11.3 kmh 30.26 in1024.7 mb 0.00 in0.0 mm 0.00 in0.0 mm 0.00 in0.0 mm
10:05 PM 31.2°F-0.4°C 18.2°F-7.7°C 58% 5.0 mph NNW8.0 kmh NNW 7.0 mph11.3 kmh 30.26 in1024.7 mb 0.00 in0.0 mm 0.00 in0.0 mm 0.00 in0.0 mm
10:10 PM 31.1°F-0.5°C 18.5°F-7.5°C 59% 3.0 mph NNW4.8 kmh NNW -- 30.26 in1024.7 mb 0.00 in0.0 mm 0.00 in0.0 mm 0.00 in0.0 mm
10:15 PM 30.9°F-0.6°C 18.3°F-7.6°C 59% 2.0 mph NW3.2 kmh NW -- 30.26 in1024.7 mb 0.00 in0.0 mm 0.00 in0.0 mm 0.00 in0.0 mm
10:20 PM 30.8°F-0.7°C 18.6°F-7.4°C 60% 3.0 mph NW4.8 kmh NW -- 30.26 in1024.7 mb 0.00 in0.0 mm 0.00 in0.0 mm 0.00 in0.0 mm
10:25 PM 30.7°F-0.7°C 18.5°F-7.5°C 60% 4.0 mph NW6.4 kmh NW -- 30.26 in1024.7 mb 0.00 in0.0 mm 0.00 in0.0 mm 0.00 in0.0 mm
10:30 PM 30.6°F-0.8°C 18.4°F-7.6°C 60% 2.0 mph N3.2 kmh N -- 30.26 in1024.7 mb 0.00 in0.0 mm 0.00 in0.0 mm 0.00 in0.0 mm
10:35 PM 30.4°F-0.9°C 18.6°F-7.4°C 61% 5.0 mph NNW8.0 kmh NNW -- 30.26 in1024.7 mb 0.00 in0.0 mm 0.00 in0.0 mm 0.00 in0.0 mm
10:40 PM 30.3°F-0.9°C 18.5°F-7.5°C 61% 5.0 mph NW8.0 kmh NW -- 30.26 in1024.7 mb 0.00 in0.0 mm 0.00 in0.0 mm 0.00 in0.0 mm
10:45 PM 30.2°F-1.0°C 18.4°F-7.6°C 61% 1.0 mph NNW1.6 kmh NNW -- 30.26 in1024.7 mb 0.00 in0.0 mm 0.00 in0.0 mm 0.00 in0.0 mm
10:50 PM 30.1°F-1.1°C 18.3°F-7.6°C 61% 3.0 mph N4.8 kmh N 7.0 mph11.3 kmh 30.26 in1024.7 mb 0.00 in0.0 mm 0.00 in0.0 mm 0.00 in0.0 mm
10:55 PM 29.9°F-1.2°C 18.5°F-7.5°C 62% 3.0 mph NNE4.8 kmh NNE 7.0 mph11.3 kmh 30.26 in1024.7 mb 0.00 in0.0 mm 0.00 in0.0 mm 0.00 in0.0 mm
11:00 PM 29.9°F-1.2°C 18.5°F-7.5°C 62% Calm Calm -- 30.26 in1024.7 mb 0.00 in0.0 mm 0.00 in0.0 mm 0.00 in0.0 mm
11:05 PM 29.7°F-1.3°C 18.7°F-7.4°C 63% 3.0 mph NNW4.8 kmh NNW -- 30.26 in1024.7 mb 0.00 in0.0 mm 0.00 in0.0 mm 0.00 in0.0 mm
11:10 PM 29.6°F-1.3°C 18.6°F-7.4°C 63% 2.0 mph NNW3.2 kmh NNW -- 30.26 in1024.7 mb 0.00 in0.0 mm 0.00 in0.0 mm 0.00 in0.0 mm
11:15 PM 29.5°F-1.4°C 18.5°F-7.5°C 63% 3.0 mph NW4.8 kmh NW -- 30.26 in1024.7 mb 0.00 in0.0 mm 0.00 in0.0 mm 0.00 in0.0 mm
11:20 PM 29.4°F-1.4°C 18.4°F-7.6°C 63% 2.0 mph NW3.2 kmh NW -- 30.26 in1024.7 mb 0.00 in0.0 mm 0.00 in0.0 mm 0.00 in0.0 mm
11:25 PM 29.3°F-1.5°C 18.7°F-7.4°C 64% 2.0 mph NW3.2 kmh NW -- 30.26 in1024.7 mb 0.00 in0.0 mm 0.00 in0.0 mm 0.00 in0.0 mm
11:30 PM 29.2°F-1.6°C 18.6°F-7.4°C 64% 2.0 mph NW3.2 kmh NW -- 30.26 in1024.7 mb 0.00 in0.0 mm 0.00 in0.0 mm 0.00 in0.0 mm
11:35 PM 29.1°F-1.6°C 18.5°F-7.5°C 64% 2.0 mph NNW3.2 kmh NNW -- 30.26 in1024.7 mb 0.00 in0.0 mm 0.00 in0.0 mm 0.00 in0.0 mm
11:40 PM 28.9°F-1.7°C 18.3°F-7.6°C 64% Calm Calm 4.0 mph6.4 kmh 30.26 in1024.7 mb 0.00 in0.0 mm 0.00 in0.0 mm 0.00 in0.0 mm
11:45 PM 28.7°F-1.8°C 18.4°F-7.6°C 65% Calm Calm 4.0 mph6.4 kmh 30.26 in1024.7 mb 0.00 in0.0 mm 0.00 in0.0 mm 0.00 in0.0 mm
11:50 PM 28.4°F-2.0°C 18.2°F-7.7°C 65% Calm Calm -- 30.26 in1024.7 mb 0.00 in0.0 mm 0.00 in0.0 mm 0.00 in0.0 mm
11:55 PM 28.3°F-2.1°C 18.4°F-7.6°C 66% Calm Calm -- 30.26 in1024.7 mb 0.00 in0.0 mm 0.00 in0.0 mm 0.00 in0.0 mm